sensor_id;sensor_type;location;lat;lon;timestamp;temperature;humidity
36800;DHT22;22752;51.960;5.886;2024-03-22T00:00:15;11.50;99.90
36800;DHT22;22752;51.960;5.886;2024-03-22T00:02:41;11.50;99.90
36800;DHT22;22752;51.960;5.886;2024-03-22T00:05:06;11.60;99.90
36800;DHT22;22752;51.960;5.886;2024-03-22T00:07:32;11.60;99.90
36800;DHT22;22752;51.960;5.886;2024-03-22T00:09:57;11.60;99.90
36800;DHT22;22752;51.960;5.886;2024-03-22T00:12:23;11.60;99.90
36800;DHT22;22752;51.960;5.886;2024-03-22T00:14:49;11.70;99.90
36800;DHT22;22752;51.960;5.886;2024-03-22T00:17:16;11.70;99.90
36800;DHT22;22752;51.960;5.886;2024-03-22T00:19:42;11.70;99.90
36800;DHT22;22752;51.960;5.886;2024-03-22T00:22:08;11.70;99.90
36800;DHT22;22752;51.960;5.886;2024-03-22T00:24:34;11.80;99.90
36800;DHT22;22752;51.960;5.886;2024-03-22T00:27:00;11.80;99.90
36800;DHT22;22752;51.960;5.886;2024-03-22T00:29:25;11.80;99.90
36800;DHT22;22752;51.960;5.886;2024-03-22T00:31:52;11.80;99.90
36800;DHT22;22752;51.960;5.886;2024-03-22T00:34:17;11.80;99.90
36800;DHT22;22752;51.960;5.886;2024-03-22T00:36:44;11.80;99.90
36800;DHT22;22752;51.960;5.886;2024-03-22T00:39:10;11.80;99.90
36800;DHT22;22752;51.960;5.886;2024-03-22T00:41:36;11.80;99.90
36800;DHT22;22752;51.960;5.886;2024-03-22T00:44:02;11.80;99.90
36800;DHT22;22752;51.960;5.886;2024-03-22T00:46:27;11.80;99.90
36800;DHT22;22752;51.960;5.886;2024-03-22T00:48:53;11.80;99.90
36800;DHT22;22752;51.960;5.886;2024-03-22T00:51:18;11.80;99.90
36800;DHT22;22752;51.960;5.886;2024-03-22T00:53:44;11.70;99.90
36800;DHT22;22752;51.960;5.886;2024-03-22T00:56:10;11.80;99.90
36800;DHT22;22752;51.960;5.886;2024-03-22T00:58:35;11.80;99.90
36800;DHT22;22752;51.960;5.886;2024-03-22T01:01:01;11.80;99.90
36800;DHT22;22752;51.960;5.886;2024-03-22T01:03:26;11.80;99.90
36800;DHT22;22752;51.960;5.886;2024-03-22T01:05:52;11.80;99.90
36800;DHT22;22752;51.960;5.886;2024-03-22T01:08:18;11.80;99.90
36800;DHT22;22752;51.960;5.886;2024-03-22T01:10:43;11.80;99.90
36800;DHT22;22752;51.960;5.886;2024-03-22T01:13:09;11.80;99.90
36800;DHT22;22752;51.960;5.886;2024-03-22T01:15:35;11.90;99.90
36800;DHT22;22752;51.960;5.886;2024-03-22T01:18:01;11.80;99.90
36800;DHT22;22752;51.960;5.886;2024-03-22T01:20:26;11.80;99.90
36800;DHT22;22752;51.960;5.886;2024-03-22T01:22:52;11.80;99.90
36800;DHT22;22752;51.960;5.886;2024-03-22T01:25:18;11.80;99.90
36800;DHT22;22752;51.960;5.886;2024-03-22T01:27:43;11.80;99.90
36800;DHT22;22752;51.960;5.886;2024-03-22T01:30:09;11.80;99.90
36800;DHT22;22752;51.960;5.886;2024-03-22T01:32:36;11.80;99.90
36800;DHT22;22752;51.960;5.886;2024-03-22T01:35:01;11.80;99.90
36800;DHT22;22752;51.960;5.886;2024-03-22T01:37:27;11.80;99.90
36800;DHT22;22752;51.960;5.886;2024-03-22T01:39:53;11.70;99.90
36800;DHT22;22752;51.960;5.886;2024-03-22T01:42:19;11.70;99.90
36800;DHT22;22752;51.960;5.886;2024-03-22T01:44:44;11.70;99.90
36800;DHT22;22752;51.960;5.886;2024-03-22T01:47:10;11.70;99.90
36800;DHT22;22752;51.960;5.886;2024-03-22T01:49:36;11.70;99.90
36800;DHT22;22752;51.960;5.886;2024-03-22T01:52:01;11.70;99.90
36800;DHT22;22752;51.960;5.886;2024-03-22T01:54:28;11.70;99.90
36800;DHT22;22752;51.960;5.886;2024-03-22T01:56:56;11.70;99.90
36800;DHT22;22752;51.960;5.886;2024-03-22T01:59:22;11.70;99.90
36800;DHT22;22752;51.960;5.886;2024-03-22T02:01:47;11.70;99.90
36800;DHT22;22752;51.960;5.886;2024-03-22T02:04:14;11.70;99.90
36800;DHT22;22752;51.960;5.886;2024-03-22T02:06:40;11.70;99.90
36800;DHT22;22752;51.960;5.886;2024-03-22T02:09:06;11.60;99.90
36800;DHT22;22752;51.960;5.886;2024-03-22T02:11:35;11.60;99.90
36800;DHT22;22752;51.960;5.886;2024-03-22T02:14:01;11.60;99.90
36800;DHT22;22752;51.960;5.886;2024-03-22T02:16:27;11.60;99.90
36800;DHT22;22752;51.960;5.886;2024-03-22T02:18:53;11.60;99.90
36800;DHT22;22752;51.960;5.886;2024-03-22T02:21:18;11.60;99.90
36800;DHT22;22752;51.960;5.886;2024-03-22T02:23:44;11.70;99.90
36800;DHT22;22752;51.960;5.886;2024-03-22T02:26:10;11.70;99.90
36800;DHT22;22752;51.960;5.886;2024-03-22T02:28:35;11.70;99.90
36800;DHT22;22752;51.960;5.886;2024-03-22T02:31:02;11.70;99.90
36800;DHT22;22752;51.960;5.886;2024-03-22T02:33:29;11.70;99.90
36800;DHT22;22752;51.960;5.886;2024-03-22T02:35:54;11.70;99.90
36800;DHT22;22752;51.960;5.886;2024-03-22T02:38:20;11.80;99.90
36800;DHT22;22752;51.960;5.886;2024-03-22T02:40:47;11.70;99.90
36800;DHT22;22752;51.960;5.886;2024-03-22T02:43:13;11.70;99.90
36800;DHT22;22752;51.960;5.886;2024-03-22T02:45:39;11.70;99.90
36800;DHT22;22752;51.960;5.886;2024-03-22T02:48:06;11.70;99.90
36800;DHT22;22752;51.960;5.886;2024-03-22T02:50:36;11.70;99.90
36800;DHT22;22752;51.960;5.886;2024-03-22T02:53:02;11.70;99.90
36800;DHT22;22752;51.960;5.886;2024-03-22T02:55:28;11.70;99.90
36800;DHT22;22752;51.960;5.886;2024-03-22T02:57:53;11.70;99.90
36800;DHT22;22752;51.960;5.886;2024-03-22T03:00:19;11.70;99.90
36800;DHT22;22752;51.960;5.886;2024-03-22T03:02:48;11.80;99.90
36800;DHT22;22752;51.960;5.886;2024-03-22T03:05:14;11.70;99.90
36800;DHT22;22752;51.960;5.886;2024-03-22T03:07:40;11.80;99.90
36800;DHT22;22752;51.960;5.886;2024-03-22T03:10:06;11.80;99.90
36800;DHT22;22752;51.960;5.886;2024-03-22T03:12:32;11.80;99.90
36800;DHT22;22752;51.960;5.886;2024-03-22T03:14:58;11.80;99.90
36800;DHT22;22752;51.960;5.886;2024-03-22T03:17:24;11.70;99.90
36800;DHT22;22752;51.960;5.886;2024-03-22T03:19:49;11.70;99.90
36800;DHT22;22752;51.960;5.886;2024-03-22T03:22:15;11.70;99.90
36800;DHT22;22752;51.960;5.886;2024-03-22T03:24:41;11.70;99.90
36800;DHT22;22752;51.960;5.886;2024-03-22T03:27:06;11.70;99.90
36800;DHT22;22752;51.960;5.886;2024-03-22T03:29:32;11.70;99.90
36800;DHT22;22752;51.960;5.886;2024-03-22T03:31:58;11.60;99.90
36800;DHT22;22752;51.960;5.886;2024-03-22T03:34:23;11.70;99.90
36800;DHT22;22752;51.960;5.886;2024-03-22T03:36:49;11.70;99.90
36800;DHT22;22752;51.960;5.886;2024-03-22T03:39:14;11.70;99.90
36800;DHT22;22752;51.960;5.886;2024-03-22T03:41:40;11.70;99.90
36800;DHT22;22752;51.960;5.886;2024-03-22T03:44:06;11.70;99.90
36800;DHT22;22752;51.960;5.886;2024-03-22T03:46:31;11.70;99.90
36800;DHT22;22752;51.960;5.886;2024-03-22T03:48:57;11.70;99.90
36800;DHT22;22752;51.960;5.886;2024-03-22T03:51:23;11.70;99.90
36800;DHT22;22752;51.960;5.886;2024-03-22T03:53:48;11.70;99.90
36800;DHT22;22752;51.960;5.886;2024-03-22T03:56:14;11.70;99.90
36800;DHT22;22752;51.960;5.886;2024-03-22T03:58:40;11.80;99.90
36800;DHT22;22752;51.960;5.886;2024-03-22T04:01:06;11.80;99.90
36800;DHT22;22752;51.960;5.886;2024-03-22T04:03:32;11.80;99.90
36800;DHT22;22752;51.960;5.886;2024-03-22T04:05:58;11.80;99.90
36800;DHT22;22752;51.960;5.886;2024-03-22T04:08:25;11.80;99.90
36800;DHT22;22752;51.960;5.886;2024-03-22T04:10:54;11.80;99.90
36800;DHT22;22752;51.960;5.886;2024-03-22T04:13:22;11.80;99.90
36800;DHT22;22752;51.960;5.886;2024-03-22T04:15:48;11.80;99.90
36800;DHT22;22752;51.960;5.886;2024-03-22T04:18:13;11.80;99.90
36800;DHT22;22752;51.960;5.886;2024-03-22T04:20:39;11.80;99.90
36800;DHT22;22752;51.960;5.886;2024-03-22T04:23:05;11.80;99.90
36800;DHT22;22752;51.960;5.886;2024-03-22T04:25:30;11.80;99.90
36800;DHT22;22752;51.960;5.886;2024-03-22T04:27:56;11.80;99.90
36800;DHT22;22752;51.960;5.886;2024-03-22T04:30:21;11.80;99.90
36800;DHT22;22752;51.960;5.886;2024-03-22T04:32:47;11.80;99.90
36800;DHT22;22752;51.960;5.886;2024-03-22T04:35:13;11.80;99.90
36800;DHT22;22752;51.960;5.886;2024-03-22T04:37:39;11.80;99.90
36800;DHT22;22752;51.960;5.886;2024-03-22T04:40:05;11.80;99.90
36800;DHT22;22752;51.960;5.886;2024-03-22T04:42:31;11.80;99.90
36800;DHT22;22752;51.960;5.886;2024-03-22T04:44:57;11.80;99.90
36800;DHT22;22752;51.960;5.886;2024-03-22T04:47:23;11.80;99.90
36800;DHT22;22752;51.960;5.886;2024-03-22T04:49:49;11.70;99.90
36800;DHT22;22752;51.960;5.886;2024-03-22T04:52:14;11.70;99.90
36800;DHT22;22752;51.960;5.886;2024-03-22T04:54:40;11.70;99.90
36800;DHT22;22752;51.960;5.886;2024-03-22T04:57:06;11.60;99.90
36800;DHT22;22752;51.960;5.886;2024-03-22T04:59:31;11.60;99.90
36800;DHT22;22752;51.960;5.886;2024-03-22T05:01:57;11.50;99.90
36800;DHT22;22752;51.960;5.886;2024-03-22T05:04:23;11.60;99.90
36800;DHT22;22752;51.960;5.886;2024-03-22T05:06:48;11.50;99.90
36800;DHT22;22752;51.960;5.886;2024-03-22T05:09:14;11.50;99.90
36800;DHT22;22752;51.960;5.886;2024-03-22T05:11:40;11.50;99.90
36800;DHT22;22752;51.960;5.886;2024-03-22T05:14:05;11.50;99.90
36800;DHT22;22752;51.960;5.886;2024-03-22T05:16:31;11.50;99.90
36800;DHT22;22752;51.960;5.886;2024-03-22T05:18:56;11.50;99.90
36800;DHT22;22752;51.960;5.886;2024-03-22T05:21:22;11.50;99.90
36800;DHT22;22752;51.960;5.886;2024-03-22T05:23:48;11.50;99.90
36800;DHT22;22752;51.960;5.886;2024-03-22T05:26:13;11.40;99.90
36800;DHT22;22752;51.960;5.886;2024-03-22T05:28:39;11.40;99.90
36800;DHT22;22752;51.960;5.886;2024-03-22T05:31:05;11.40;99.90
36800;DHT22;22752;51.960;5.886;2024-03-22T05:33:31;11.40;99.90
36800;DHT22;22752;51.960;5.886;2024-03-22T05:35:57;11.40;99.90
36800;DHT22;22752;51.960;5.886;2024-03-22T05:38:23;11.40;99.90
36800;DHT22;22752;51.960;5.886;2024-03-22T05:40:48;11.30;99.90
36800;DHT22;22752;51.960;5.886;2024-03-22T05:43:14;11.30;99.90
36800;DHT22;22752;51.960;5.886;2024-03-22T05:45:40;11.30;99.90
36800;DHT22;22752;51.960;5.886;2024-03-22T05:48:05;11.30;99.90
36800;DHT22;22752;51.960;5.886;2024-03-22T05:50:31;11.30;99.90
36800;DHT22;22752;51.960;5.886;2024-03-22T05:52:57;11.30;99.90
36800;DHT22;22752;51.960;5.886;2024-03-22T05:55:23;11.30;99.90
36800;DHT22;22752;51.960;5.886;2024-03-22T05:57:49;11.30;99.90
36800;DHT22;22752;51.960;5.886;2024-03-22T06:00:15;11.30;99.90
36800;DHT22;22752;51.960;5.886;2024-03-22T06:02:40;11.30;99.90
36800;DHT22;22752;51.960;5.886;2024-03-22T06:05:06;11.30;99.90
36800;DHT22;22752;51.960;5.886;2024-03-22T06:07:32;11.30;99.90
36800;DHT22;22752;51.960;5.886;2024-03-22T06:10:06;11.30;99.90
36800;DHT22;22752;51.960;5.886;2024-03-22T06:12:32;11.30;99.90
36800;DHT22;22752;51.960;5.886;2024-03-22T06:14:57;11.30;99.90
36800;DHT22;22752;51.960;5.886;2024-03-22T06:17:23;11.30;99.90
36800;DHT22;22752;51.960;5.886;2024-03-22T06:19:48;11.30;99.90
36800;DHT22;22752;51.960;5.886;2024-03-22T06:22:14;11.20;99.90
36800;DHT22;22752;51.960;5.886;2024-03-22T06:24:40;11.20;99.90
36800;DHT22;22752;51.960;5.886;2024-03-22T06:27:05;11.20;99.90
36800;DHT22;22752;51.960;5.886;2024-03-22T06:29:32;11.20;99.90
36800;DHT22;22752;51.960;5.886;2024-03-22T06:31:58;11.30;99.90
36800;DHT22;22752;51.960;5.886;2024-03-22T06:34:23;11.30;99.90
36800;DHT22;22752;51.960;5.886;2024-03-22T06:36:50;11.30;99.90
36800;DHT22;22752;51.960;5.886;2024-03-22T06:39:16;11.30;99.90
36800;DHT22;22752;51.960;5.886;2024-03-22T06:41:42;11.30;99.90
36800;DHT22;22752;51.960;5.886;2024-03-22T06:44:07;11.30;99.90
36800;DHT22;22752;51.960;5.886;2024-03-22T06:46:37;11.30;99.90
36800;DHT22;22752;51.960;5.886;2024-03-22T06:49:03;11.30;99.90
36800;DHT22;22752;51.960;5.886;2024-03-22T06:51:28;11.30;99.90
36800;DHT22;22752;51.960;5.886;2024-03-22T06:53:54;11.30;99.90
36800;DHT22;22752;51.960;5.886;2024-03-22T06:56:20;11.30;99.90
36800;DHT22;22752;51.960;5.886;2024-03-22T06:58:46;11.40;99.90
36800;DHT22;22752;51.960;5.886;2024-03-22T07:01:12;11.40;99.90
36800;DHT22;22752;51.960;5.886;2024-03-22T07:03:38;11.50;99.90
36800;DHT22;22752;51.960;5.886;2024-03-22T07:06:04;11.50;99.90
36800;DHT22;22752;51.960;5.886;2024-03-22T07:08:31;11.50;99.90
36800;DHT22;22752;51.960;5.886;2024-03-22T07:10:57;11.40;99.90
36800;DHT22;22752;51.960;5.886;2024-03-22T07:13:22;11.50;99.90
36800;DHT22;22752;51.960;5.886;2024-03-22T07:15:48;11.50;99.90
36800;DHT22;22752;51.960;5.886;2024-03-22T07:18:14;11.50;99.90
36800;DHT22;22752;51.960;5.886;2024-03-22T07:20:41;11.50;99.90
36800;DHT22;22752;51.960;5.886;2024-03-22T07:23:08;11.50;99.90
36800;DHT22;22752;51.960;5.886;2024-03-22T07:25:34;11.60;99.90
36800;DHT22;22752;51.960;5.886;2024-03-22T07:27:59;11.70;99.90
36800;DHT22;22752;51.960;5.886;2024-03-22T07:30:25;11.80;99.90
36800;DHT22;22752;51.960;5.886;2024-03-22T07:32:50;11.90;99.90
36800;DHT22;22752;51.960;5.886;2024-03-22T07:35:16;12.00;99.90
36800;DHT22;22752;51.960;5.886;2024-03-22T07:37:42;12.00;99.90
36800;DHT22;22752;51.960;5.886;2024-03-22T07:40:08;12.00;99.90
36800;DHT22;22752;51.960;5.886;2024-03-22T07:42:34;11.90;99.90
36800;DHT22;22752;51.960;5.886;2024-03-22T07:44:59;11.90;99.90
36800;DHT22;22752;51.960;5.886;2024-03-22T07:47:25;11.90;99.90
36800;DHT22;22752;51.960;5.886;2024-03-22T07:49:51;11.90;99.90
36800;DHT22;22752;51.960;5.886;2024-03-22T07:52:16;11.90;99.90
36800;DHT22;22752;51.960;5.886;2024-03-22T07:54:42;11.90;99.90
36800;DHT22;22752;51.960;5.886;2024-03-22T07:57:08;11.90;99.90
36800;DHT22;22752;51.960;5.886;2024-03-22T07:59:33;11.90;99.90
36800;DHT22;22752;51.960;5.886;2024-03-22T08:02:00;11.90;99.90
36800;DHT22;22752;51.960;5.886;2024-03-22T08:04:25;12.00;99.90
36800;DHT22;22752;51.960;5.886;2024-03-22T08:06:51;12.00;99.90
36800;DHT22;22752;51.960;5.886;2024-03-22T08:09:17;11.90;99.90
36800;DHT22;22752;51.960;5.886;2024-03-22T08:11:44;12.00;99.90
36800;DHT22;22752;51.960;5.886;2024-03-22T08:14:10;12.00;99.90
36800;DHT22;22752;51.960;5.886;2024-03-22T08:16:35;12.00;99.90
36800;DHT22;22752;51.960;5.886;2024-03-22T08:19:01;12.10;99.90
36800;DHT22;22752;51.960;5.886;2024-03-22T08:21:27;12.10;99.90
36800;DHT22;22752;51.960;5.886;2024-03-22T08:23:52;12.10;99.90
36800;DHT22;22752;51.960;5.886;2024-03-22T08:26:19;12.10;99.90
36800;DHT22;22752;51.960;5.886;2024-03-22T08:28:47;12.00;99.90
36800;DHT22;22752;51.960;5.886;2024-03-22T08:31:14;12.00;99.90
36800;DHT22;22752;51.960;5.886;2024-03-22T08:33:39;12.00;99.90
36800;DHT22;22752;51.960;5.886;2024-03-22T08:36:05;11.90;99.90
36800;DHT22;22752;51.960;5.886;2024-03-22T08:38:31;12.00;99.90
36800;DHT22;22752;51.960;5.886;2024-03-22T08:40:57;12.00;99.90
36800;DHT22;22752;51.960;5.886;2024-03-22T08:43:22;12.00;99.90
36800;DHT22;22752;51.960;5.886;2024-03-22T08:45:51;12.00;99.90
36800;DHT22;22752;51.960;5.886;2024-03-22T08:48:17;12.00;99.90
36800;DHT22;22752;51.960;5.886;2024-03-22T08:50:46;12.00;99.90
36800;DHT22;22752;51.960;5.886;2024-03-22T08:53:12;12.00;99.90
36800;DHT22;22752;51.960;5.886;2024-03-22T08:55:37;11.90;99.90
36800;DHT22;22752;51.960;5.886;2024-03-22T08:58:04;11.90;99.90
36800;DHT22;22752;51.960;5.886;2024-03-22T09:00:30;12.00;99.90
36800;DHT22;22752;51.960;5.886;2024-03-22T09:02:55;11.90;99.90
36800;DHT22;22752;51.960;5.886;2024-03-22T09:05:21;11.90;99.90
36800;DHT22;22752;51.960;5.886;2024-03-22T09:07:47;11.80;99.90
36800;DHT22;22752;51.960;5.886;2024-03-22T09:10:14;11.80;99.90
36800;DHT22;22752;51.960;5.886;2024-03-22T09:12:39;11.70;99.90
36800;DHT22;22752;51.960;5.886;2024-03-22T09:15:06;11.70;99.90
36800;DHT22;22752;51.960;5.886;2024-03-22T09:17:32;11.60;99.90
36800;DHT22;22752;51.960;5.886;2024-03-22T09:19:58;11.60;99.90
36800;DHT22;22752;51.960;5.886;2024-03-22T09:22:24;11.50;99.90
36800;DHT22;22752;51.960;5.886;2024-03-22T09:24:49;11.50;99.90
36800;DHT22;22752;51.960;5.886;2024-03-22T09:27:15;11.40;99.90
36800;DHT22;22752;51.960;5.886;2024-03-22T09:29:41;11.50;99.90
36800;DHT22;22752;51.960;5.886;2024-03-22T09:32:09;11.40;99.90
36800;DHT22;22752;51.960;5.886;2024-03-22T09:34:34;11.40;99.90
36800;DHT22;22752;51.960;5.886;2024-03-22T09:37:00;11.40;99.90
36800;DHT22;22752;51.960;5.886;2024-03-22T09:39:26;11.40;99.90
36800;DHT22;22752;51.960;5.886;2024-03-22T09:41:52;11.30;99.90
36800;DHT22;22752;51.960;5.886;2024-03-22T09:44:22;11.40;99.90
36800;DHT22;22752;51.960;5.886;2024-03-22T09:46:50;11.40;99.90
36800;DHT22;22752;51.960;5.886;2024-03-22T09:49:16;11.50;99.90
36800;DHT22;22752;51.960;5.886;2024-03-22T09:51:43;11.50;99.90
36800;DHT22;22752;51.960;5.886;2024-03-22T09:54:10;11.60;99.90
36800;DHT22;22752;51.960;5.886;2024-03-22T09:56:38;11.60;99.90
36800;DHT22;22752;51.960;5.886;2024-03-22T09:59:04;11.70;99.90
36800;DHT22;22752;51.960;5.886;2024-03-22T10:01:31;11.70;99.90
36800;DHT22;22752;51.960;5.886;2024-03-22T10:03:57;11.60;99.90
36800;DHT22;22752;51.960;5.886;2024-03-22T10:06:22;11.60;99.90
36800;DHT22;22752;51.960;5.886;2024-03-22T10:08:48;11.70;99.90
36800;DHT22;22752;51.960;5.886;2024-03-22T10:11:14;11.70;99.90
36800;DHT22;22752;51.960;5.886;2024-03-22T10:13:39;11.70;99.90
36800;DHT22;22752;51.960;5.886;2024-03-22T10:16:05;11.70;99.90
36800;DHT22;22752;51.960;5.886;2024-03-22T10:18:34;11.70;99.90
36800;DHT22;22752;51.960;5.886;2024-03-22T10:21:01;11.80;99.90
36800;DHT22;22752;51.960;5.886;2024-03-22T10:23:27;11.70;99.90
36800;DHT22;22752;51.960;5.886;2024-03-22T10:25:53;11.70;99.90
36800;DHT22;22752;51.960;5.886;2024-03-22T10:28:19;11.60;99.90
36800;DHT22;22752;51.960;5.886;2024-03-22T10:30:45;11.60;99.90
36800;DHT22;22752;51.960;5.886;2024-03-22T10:33:12;11.50;99.90
36800;DHT22;22752;51.960;5.886;2024-03-22T10:35:39;11.40;99.90
36800;DHT22;22752;51.960;5.886;2024-03-22T10:38:06;11.30;99.90
36800;DHT22;22752;51.960;5.886;2024-03-22T10:40:34;11.30;99.90
36800;DHT22;22752;51.960;5.886;2024-03-22T10:43:00;11.20;99.90
36800;DHT22;22752;51.960;5.886;2024-03-22T10:45:29;11.20;99.90
36800;DHT22;22752;51.960;5.886;2024-03-22T10:47:55;11.10;99.90
36800;DHT22;22752;51.960;5.886;2024-03-22T10:50:22;11.10;99.90
36800;DHT22;22752;51.960;5.886;2024-03-22T10:52:54;11.10;99.90
36800;DHT22;22752;51.960;5.886;2024-03-22T10:55:22;11.20;99.90
36800;DHT22;22752;51.960;5.886;2024-03-22T10:57:50;11.10;99.90
36800;DHT22;22752;51.960;5.886;2024-03-22T11:00:26;11.10;99.90
36800;DHT22;22752;51.960;5.886;2024-03-22T11:02:53;11.00;99.90
36800;DHT22;22752;51.960;5.886;2024-03-22T11:05:19;11.00;99.90
36800;DHT22;22752;51.960;5.886;2024-03-22T11:07:45;11.10;99.90
36800;DHT22;22752;51.960;5.886;2024-03-22T11:10:14;11.10;99.90
36800;DHT22;22752;51.960;5.886;2024-03-22T11:12:40;11.00;99.90
36800;DHT22;22752;51.960;5.886;2024-03-22T11:15:07;11.00;99.90
36800;DHT22;22752;51.960;5.886;2024-03-22T11:17:34;11.00;99.90
36800;DHT22;22752;51.960;5.886;2024-03-22T11:20:00;11.00;99.90
36800;DHT22;22752;51.960;5.886;2024-03-22T11:22:26;11.00;99.90
36800;DHT22;22752;51.960;5.886;2024-03-22T11:24:52;10.90;99.90
36800;DHT22;22752;51.960;5.886;2024-03-22T11:27:18;11.00;99.90
36800;DHT22;22752;51.960;5.886;2024-03-22T11:29:45;10.90;99.90
36800;DHT22;22752;51.960;5.886;2024-03-22T11:32:12;10.90;99.90
36800;DHT22;22752;51.960;5.886;2024-03-22T11:34:39;10.90;99.90
36800;DHT22;22752;51.960;5.886;2024-03-22T11:37:08;10.90;99.90
36800;DHT22;22752;51.960;5.886;2024-03-22T11:39:39;10.90;99.90
36800;DHT22;22752;51.960;5.886;2024-03-22T11:42:06;10.90;99.90
36800;DHT22;22752;51.960;5.886;2024-03-22T11:44:33;10.90;99.90
36800;DHT22;22752;51.960;5.886;2024-03-22T11:47:02;10.90;99.90
36800;DHT22;22752;51.960;5.886;2024-03-22T11:49:28;11.00;99.90
36800;DHT22;22752;51.960;5.886;2024-03-22T11:51:56;11.00;99.90
36800;DHT22;22752;51.960;5.886;2024-03-22T11:54:22;11.00;99.90
36800;DHT22;22752;51.960;5.886;2024-03-22T11:56:49;11.10;99.90
36800;DHT22;22752;51.960;5.886;2024-03-22T11:59:18;11.10;99.90
36800;DHT22;22752;51.960;5.886;2024-03-22T12:01:44;11.10;99.90
36800;DHT22;22752;51.960;5.886;2024-03-22T12:04:10;11.10;99.90
36800;DHT22;22752;51.960;5.886;2024-03-22T12:06:44;11.10;99.90
36800;DHT22;22752;51.960;5.886;2024-03-22T12:09:11;11.10;99.90
36800;DHT22;22752;51.960;5.886;2024-03-22T12:11:39;11.10;99.90
36800;DHT22;22752;51.960;5.886;2024-03-22T12:14:05;11.10;99.90
36800;DHT22;22752;51.960;5.886;2024-03-22T12:16:30;11.10;99.90
36800;DHT22;22752;51.960;5.886;2024-03-22T12:18:56;11.10;99.90
36800;DHT22;22752;51.960;5.886;2024-03-22T12:21:22;11.10;99.90
36800;DHT22;22752;51.960;5.886;2024-03-22T12:23:47;11.20;99.90
36800;DHT22;22752;51.960;5.886;2024-03-22T12:26:13;11.20;99.90
36800;DHT22;22752;51.960;5.886;2024-03-22T12:28:39;11.20;99.90
36800;DHT22;22752;51.960;5.886;2024-03-22T12:31:04;11.30;99.90
36800;DHT22;22752;51.960;5.886;2024-03-22T12:33:30;11.30;99.90
36800;DHT22;22752;51.960;5.886;2024-03-22T12:35:56;11.30;99.90
36800;DHT22;22752;51.960;5.886;2024-03-22T12:38:21;11.30;99.90
36800;DHT22;22752;51.960;5.886;2024-03-22T12:40:47;11.30;99.90
36800;DHT22;22752;51.960;5.886;2024-03-22T12:43:13;11.30;99.90
36800;DHT22;22752;51.960;5.886;2024-03-22T12:45:39;11.30;99.90
36800;DHT22;22752;51.960;5.886;2024-03-22T12:48:05;11.30;99.90
36800;DHT22;22752;51.960;5.886;2024-03-22T12:50:31;11.30;99.90
36800;DHT22;22752;51.960;5.886;2024-03-22T12:52:56;11.30;99.90
36800;DHT22;22752;51.960;5.886;2024-03-22T12:55:22;11.30;99.90
36800;DHT22;22752;51.960;5.886;2024-03-22T12:57:48;11.40;99.90
36800;DHT22;22752;51.960;5.886;2024-03-22T13:00:14;11.40;99.90
36800;DHT22;22752;51.960;5.886;2024-03-22T13:02:46;11.30;99.90
36800;DHT22;22752;51.960;5.886;2024-03-22T13:05:12;11.40;99.90
36800;DHT22;22752;51.960;5.886;2024-03-22T13:07:38;11.40;99.90
36800;DHT22;22752;51.960;5.886;2024-03-22T13:10:05;11.50;99.90
36800;DHT22;22752;51.960;5.886;2024-03-22T13:12:31;11.40;99.90
36800;DHT22;22752;51.960;5.886;2024-03-22T13:14:57;11.40;99.90
36800;DHT22;22752;51.960;5.886;2024-03-22T13:17:23;11.30;99.90
36800;DHT22;22752;51.960;5.886;2024-03-22T13:19:49;11.30;99.90
36800;DHT22;22752;51.960;5.886;2024-03-22T13:22:16;11.40;99.90
36800;DHT22;22752;51.960;5.886;2024-03-22T13:24:44;11.40;99.90
36800;DHT22;22752;51.960;5.886;2024-03-22T13:27:10;11.40;99.90
36800;DHT22;22752;51.960;5.886;2024-03-22T13:29:38;11.40;99.90
36800;DHT22;22752;51.960;5.886;2024-03-22T13:32:04;11.40;99.90
36800;DHT22;22752;51.960;5.886;2024-03-22T13:34:31;11.40;99.90
36800;DHT22;22752;51.960;5.886;2024-03-22T13:36:56;11.40;99.90
36800;DHT22;22752;51.960;5.886;2024-03-22T13:39:22;11.30;99.90
36800;DHT22;22752;51.960;5.886;2024-03-22T13:41:48;11.30;99.90
36800;DHT22;22752;51.960;5.886;2024-03-22T13:44:14;11.30;99.90
36800;DHT22;22752;51.960;5.886;2024-03-22T13:46:40;11.30;99.90
36800;DHT22;22752;51.960;5.886;2024-03-22T13:49:14;11.30;99.90
36800;DHT22;22752;51.960;5.886;2024-03-22T13:51:43;11.40;99.90
36800;DHT22;22752;51.960;5.886;2024-03-22T13:54:09;11.40;99.90
36800;DHT22;22752;51.960;5.886;2024-03-22T13:56:35;11.40;99.90
36800;DHT22;22752;51.960;5.886;2024-03-22T13:59:03;11.50;99.90
36800;DHT22;22752;51.960;5.886;2024-03-22T14:01:33;11.50;99.90
36800;DHT22;22752;51.960;5.886;2024-03-22T14:04:00;11.50;99.90
36800;DHT22;22752;51.960;5.886;2024-03-22T14:06:26;11.50;99.90
36800;DHT22;22752;51.960;5.886;2024-03-22T14:08:52;11.50;99.90
36800;DHT22;22752;51.960;5.886;2024-03-22T14:11:20;11.50;99.90
36800;DHT22;22752;51.960;5.886;2024-03-22T14:13:45;11.50;99.90
36800;DHT22;22752;51.960;5.886;2024-03-22T14:16:11;11.50;99.90
36800;DHT22;22752;51.960;5.886;2024-03-22T14:18:37;11.50;99.90
36800;DHT22;22752;51.960;5.886;2024-03-22T14:21:03;11.60;99.90
36800;DHT22;22752;51.960;5.886;2024-03-22T14:23:28;11.70;99.90
36800;DHT22;22752;51.960;5.886;2024-03-22T14:25:57;11.60;99.90
36800;DHT22;22752;51.960;5.886;2024-03-22T14:28:23;11.50;99.90
36800;DHT22;22752;51.960;5.886;2024-03-22T14:30:48;11.40;99.90
36800;DHT22;22752;51.960;5.886;2024-03-22T14:33:14;11.40;99.90
36800;DHT22;22752;51.960;5.886;2024-03-22T14:35:39;11.30;99.90
36800;DHT22;22752;51.960;5.886;2024-03-22T14:38:05;11.30;99.90
36800;DHT22;22752;51.960;5.886;2024-03-22T14:40:31;11.30;99.90
36800;DHT22;22752;51.960;5.886;2024-03-22T14:43:02;11.30;99.90
36800;DHT22;22752;51.960;5.886;2024-03-22T14:45:28;11.30;99.90
36800;DHT22;22752;51.960;5.886;2024-03-22T14:47:53;11.30;99.90
36800;DHT22;22752;51.960;5.886;2024-03-22T14:50:19;11.20;99.90
36800;DHT22;22752;51.960;5.886;2024-03-22T14:52:48;11.20;99.90
36800;DHT22;22752;51.960;5.886;2024-03-22T14:55:13;11.20;99.90
36800;DHT22;22752;51.960;5.886;2024-03-22T14:57:39;11.20;99.90
36800;DHT22;22752;51.960;5.886;2024-03-22T15:00:05;11.20;99.90
36800;DHT22;22752;51.960;5.886;2024-03-22T15:02:35;11.10;99.90
36800;DHT22;22752;51.960;5.886;2024-03-22T15:05:01;11.10;99.90
36800;DHT22;22752;51.960;5.886;2024-03-22T15:07:26;11.00;99.90
36800;DHT22;22752;51.960;5.886;2024-03-22T15:09:52;11.00;99.90
36800;DHT22;22752;51.960;5.886;2024-03-22T15:12:17;11.00;99.90
36800;DHT22;22752;51.960;5.886;2024-03-22T15:14:43;10.90;99.90
36800;DHT22;22752;51.960;5.886;2024-03-22T15:17:08;10.90;99.90
36800;DHT22;22752;51.960;5.886;2024-03-22T15:19:35;10.90;99.90
36800;DHT22;22752;51.960;5.886;2024-03-22T15:22:00;10.80;99.90